This is the latest recevied weather packets stored in our database for station/object VK3MAK-1. If no packets are shown the sender has not sent any weather packets the latest 10 day(s).
| Time | Temp. | Humidity | Pressure | Rain* | Wind** | Luminosity | Snow |
|---|---|---|---|---|---|---|---|
| 1777881603 | 12.78° C | 10% | - | 0 mm | 5.81 m/s, 293° | - | - |
| 1777881004 | 12.78° C | 10% | - | 0.51 mm | 5.81 m/s, 293° | - | - |
| 1777880403 | 12.78° C | 10% | - | 0.51 mm | 5.81 m/s, 293° | - | - |
| 1777879803 | 12.78° C | 10% | - | 0 mm | 4.92 m/s, 270° | - | - |
| 1777879204 | 12.78° C | 10% | - | 2.54 mm | 4.92 m/s, 270° | - | - |
| 1777878603 | 12.78° C | 10% | - | 2.54 mm | 4.92 m/s, 270° | - | - |
| 1777878004 | 13.33° C | 10% | - | 0 mm | 6.26 m/s, 315° | - | - |
| 1777877405 | 13.33° C | 10% | - | 0.76 mm | 6.26 m/s, 315° | - | - |
| 1777876804 | 13.33° C | 10% | - | 0.76 mm | 6.26 m/s, 315° | - | - |
| 1777876203 | 13.89° C | 10% | - | 0 mm | 7.15 m/s, 315° | - | - |
| 1777875604 | 13.89° C | 10% | - | 0.25 mm | 7.15 m/s, 315° | - | - |
| 1777875004 | 13.89° C | 10% | - | 0.25 mm | 7.15 m/s, 315° | - | - |
| 1777874403 | 13.33° C | 10% | - | 0 mm | 6.71 m/s, 315° | - | - |
| 1777873803 | 13.33° C | 10% | - | 0.76 mm | 6.71 m/s, 315° | - | - |
| 1777873203 | 13.33° C | 10% | - | 1.02 mm | 6.71 m/s, 315° | - | - |
| 1777872603 | 14.44° C | 94% | 1007.2 hPa | 0.25 mm | 9.39 m/s, 315° | - | - |
| 1777872003 | 14.44° C | 94% | 1007.2 hPa | 0.25 mm | 9.39 m/s, 315° | - | - |
| 1777871404 | 14.44° C | 94% | 1007.2 hPa | 0.25 mm | 9.39 m/s, 315° | - | - |
| 1777870804 | 15° C | 92% | 1006.8 hPa | 0 mm | 7.15 m/s, 315° | - | - |
| 1777870203 | 15.56° C | 10% | - | 0.25 mm | 7.6 m/s, 315° | - | - |
| 1777869604 | 15.56° C | 10% | - | 0.25 mm | 7.6 m/s, 315° | - | - |
| 1777869003 | 14.44° C | 85% | 1006.5 hPa | 0 mm | 9.39 m/s, 315° | - | - |
| 1777868403 | 14.44° C | 85% | 1006.5 hPa | 0 mm | 9.39 m/s, 315° | - | - |
| 1777867803 | 14.44° C | 85% | 1006.5 hPa | 0 mm | 9.39 m/s, 315° | - | - |
| 1777867203 | 16.67° C | 67% | 1006.3 hPa | 0 mm | 10.28 m/s, 338° | - | - |
* Rain latest hour (hover to see other rain measurements)
** Current wind speed in m/s (hover to see current wind gust speed)